createdAt,value
2023-05-23T00:03:33.822Z,1.10
2023-05-23T00:08:25.829Z,1.10
2023-05-23T00:13:17.722Z,0.95
2023-05-23T00:18:12.395Z,0.77
2023-05-23T00:23:04.446Z,0.90
2023-05-23T00:27:56.135Z,0.77
2023-05-23T00:32:47.852Z,0.93
2023-05-23T00:37:40.616Z,0.70
2023-05-23T00:42:32.736Z,0.90
2023-05-23T00:47:24.606Z,1.20
2023-05-23T00:52:17.564Z,0.93
2023-05-23T00:57:09.235Z,0.85
2023-05-23T01:02:00.981Z,0.80
2023-05-23T01:06:56.284Z,1.10
2023-05-23T01:12:04.646Z,0.90
2023-05-23T01:17:01.668Z,0.70
2023-05-23T01:21:55.410Z,1.17
2023-05-23T01:26:48.335Z,1.13
2023-05-23T01:31:46.084Z,0.90
2023-05-23T01:36:43.050Z,0.80
2023-05-23T01:41:34.998Z,1.00
2023-05-23T01:46:28.753Z,1.10
2023-05-23T01:51:22.701Z,0.70
2023-05-23T01:56:14.470Z,1.45
2023-05-23T02:01:06.721Z,1.20
2023-05-23T02:05:58.363Z,0.93
2023-05-23T02:10:50.533Z,1.00
2023-05-23T02:15:42.375Z,1.00
2023-05-23T02:20:34.308Z,1.10
2023-05-23T02:25:25.879Z,0.85
2023-05-23T02:30:17.604Z,1.13
2023-05-23T02:35:10.613Z,0.85
2023-05-23T02:40:02.288Z,0.80
2023-05-23T02:44:54.216Z,1.00
2023-05-23T02:49:45.922Z,1.00
2023-05-23T02:54:37.597Z,0.70
2023-05-23T02:59:29.301Z,1.38
2023-05-23T03:04:21.500Z,0.88
2023-05-23T03:09:16.908Z,0.63
2023-05-23T03:14:08.511Z,0.80
2023-05-23T03:19:00.826Z,1.80
2023-05-23T03:23:52.486Z,0.77
2023-05-23T03:28:44.057Z,0.95
2023-05-23T03:33:37.084Z,1.02
2023-05-23T03:38:30.732Z,1.58
2023-05-23T03:43:22.425Z,0.98
2023-05-23T03:48:14.103Z,0.98
2023-05-23T03:53:06.116Z,0.60
2023-05-23T03:57:57.754Z,0.88
2023-05-23T04:02:52.196Z,0.90
2023-05-23T04:07:45.585Z,0.68
2023-05-23T04:12:38.574Z,1.02
2023-05-23T04:17:31.799Z,0.95
2023-05-23T04:22:23.706Z,1.00
2023-05-23T04:27:15.399Z,1.00
2023-05-23T04:32:08.167Z,1.15
2023-05-23T04:37:03.093Z,1.17
2023-05-23T04:41:54.694Z,1.17
2023-05-23T04:46:46.398Z,1.52
2023-05-23T04:51:38.440Z,1.02
2023-05-23T04:56:30.177Z,1.02
2023-05-23T05:01:24.513Z,1.92
2023-05-23T05:06:18.457Z,1.08
2023-05-23T05:11:10.567Z,1.33
2023-05-23T05:16:03.135Z,1.27
2023-05-23T05:20:55.974Z,1.52
2023-05-23T05:25:47.957Z,0.82
2023-05-23T05:30:40.043Z,0.82
2023-05-23T05:35:32.521Z,0.93
2023-05-23T05:40:24.414Z,1.30
2023-05-23T05:45:18.102Z,1.00
2023-05-23T05:50:11.855Z,0.93
2023-05-23T05:55:03.646Z,1.30
2023-05-23T05:59:55.429Z,1.50
2023-05-23T06:04:47.182Z,1.25
2023-05-23T06:09:39.284Z,1.10
2023-05-23T06:14:31.008Z,0.95
2023-05-23T06:19:23.342Z,1.67
2023-05-23T06:24:15.125Z,1.20
2023-05-23T06:29:06.734Z,1.60
2023-05-23T06:33:58.494Z,1.40
2023-05-23T06:38:50.138Z,1.40
2023-05-23T06:43:41.956Z,1.92
2023-05-23T06:48:33.698Z,1.40
2023-05-23T06:53:25.297Z,1.20
2023-05-23T06:58:16.895Z,1.60
2023-05-23T07:03:08.677Z,2.30
2023-05-23T07:08:01.579Z,2.42
2023-05-23T07:12:53.221Z,2.03
2023-05-23T07:17:44.927Z,2.08
2023-05-23T07:22:36.771Z,2.40
2023-05-23T07:27:29.172Z,2.40
2023-05-23T07:32:20.916Z,2.35
2023-05-23T07:37:12.517Z,1.38
2023-05-23T07:42:04.380Z,2.85
2023-05-23T07:46:56.100Z,1.65
2023-05-23T07:51:47.912Z,1.95
2023-05-23T07:56:40.047Z,2.75
2023-05-23T08:01:31.880Z,1.85
2023-05-23T08:06:23.518Z,2.75
2023-05-23T08:11:15.682Z,3.70
2023-05-23T08:16:07.452Z,3.45
2023-05-23T08:20:59.131Z,2.88
2023-05-23T08:25:51.810Z,2.95
2023-05-23T08:30:43.642Z,2.65
2023-05-23T08:35:36.842Z,3.38
2023-05-23T08:40:32.173Z,2.88
2023-05-23T08:45:23.936Z,2.70
2023-05-23T08:50:18.697Z,2.47
2023-05-23T08:55:13.201Z,2.40
2023-05-23T09:00:11.120Z,2.20
2023-05-23T09:05:03.153Z,2.60
2023-05-23T09:09:55.187Z,2.53
2023-05-23T09:14:47.218Z,2.40
2023-05-23T09:19:42.284Z,2.40
2023-05-23T09:24:36.028Z,2.33
2023-05-23T09:29:28.052Z,2.15
2023-05-23T09:34:19.673Z,3.00
2023-05-23T09:39:12.558Z,2.03
2023-05-23T09:44:10.088Z,3.78
2023-05-23T09:49:02.175Z,3.40
2023-05-23T09:53:54.077Z,4.53
2023-05-23T09:58:48.669Z,4.90
2023-05-23T10:04:00.027Z,5.75
2023-05-23T10:08:59.402Z,6.18
2023-05-23T10:13:51.242Z,5.13
2023-05-23T10:18:44.470Z,5.10
2023-05-23T10:23:37.751Z,4.25
2023-05-23T10:28:29.411Z,3.70
2023-05-23T10:33:22.678Z,5.13
2023-05-23T10:38:31.741Z,5.50
2023-05-23T10:43:31.218Z,4.03
2023-05-23T10:48:32.700Z,5.53
2023-05-23T10:53:24.364Z,4.03
2023-05-23T10:58:19.862Z,3.13
2023-05-23T11:03:11.785Z,3.38
2023-05-23T11:08:18.004Z,3.97
2023-05-23T11:13:11.141Z,4.72
2023-05-23T11:18:07.007Z,4.00
2023-05-23T11:23:04.109Z,3.90
2023-05-23T11:27:55.849Z,3.70
2023-05-23T11:32:53.196Z,5.75
2023-05-23T11:37:44.986Z,4.38
2023-05-23T11:42:42.272Z,4.68
2023-05-23T11:52:33.335Z,2.35
2023-05-23T11:57:24.938Z,3.00
2023-05-23T12:02:16.542Z,4.43
2023-05-23T12:07:08.319Z,3.35
2023-05-23T12:12:00.058Z,3.65
2023-05-23T12:16:52.826Z,3.53
2023-05-23T12:21:49.026Z,5.40
2023-05-23T12:26:55.327Z,6.22
2023-05-23T12:31:51.474Z,7.05
2023-05-23T12:36:49.061Z,8.15
2023-05-23T12:41:42.666Z,6.15
2023-05-23T12:46:34.768Z,6.07
2023-05-23T12:51:26.631Z,6.15
2023-05-23T12:56:18.722Z,7.45
2023-05-23T13:01:11.220Z,6.60
2023-05-23T13:06:03.306Z,7.70
2023-05-23T13:10:55.109Z,5.70
2023-05-23T13:15:48.136Z,6.57
2023-05-23T13:20:42.366Z,6.43
2023-05-23T13:25:33.956Z,5.03
2023-05-23T13:30:25.580Z,6.03
2023-05-23T13:35:17.283Z,6.00
2023-05-23T13:40:13.452Z,4.88
2023-05-23T13:45:06.273Z,5.78
2023-05-23T13:49:58.088Z,4.32
2023-05-23T13:54:49.734Z,4.60
2023-05-23T13:59:41.344Z,3.50
2023-05-23T14:04:33.036Z,2.67
2023-05-23T14:09:24.774Z,2.38
2023-05-23T14:14:17.838Z,2.63
2023-05-23T14:19:10.126Z,2.90
2023-05-23T14:24:02.983Z,1.65
2023-05-23T14:28:55.247Z,2.20
2023-05-23T14:33:47.741Z,2.05
2023-05-23T14:38:40.812Z,1.67
2023-05-23T14:43:32.528Z,2.03
2023-05-23T14:48:24.292Z,2.10
2023-05-23T14:53:16.163Z,2.15
2023-05-23T14:58:08.106Z,1.40
2023-05-23T15:02:59.932Z,1.48
2023-05-23T15:07:51.634Z,1.00
2023-05-23T15:12:43.946Z,1.75
2023-05-23T15:17:35.771Z,1.40
2023-05-23T15:27:24.014Z,1.08
2023-05-23T15:32:16.034Z,1.13
2023-05-23T15:37:07.829Z,1.23
2023-05-23T15:41:59.687Z,1.42
2023-05-23T15:46:51.974Z,1.90
2023-05-23T15:51:43.666Z,1.23
2023-05-23T15:56:35.461Z,1.85
2023-05-23T16:01:27.153Z,1.65
2023-05-23T16:06:18.923Z,1.83
2023-05-23T16:11:10.646Z,1.52
2023-05-23T16:16:04.118Z,1.48
2023-05-23T16:20:57.206Z,1.98
2023-05-23T16:25:49.038Z,0.93
2023-05-23T16:30:40.785Z,1.15
2023-05-23T16:35:32.497Z,1.05
2023-05-23T16:40:24.308Z,1.23
2023-05-23T16:45:16.024Z,1.05
2023-05-23T16:50:09.217Z,1.13
2023-05-23T16:55:00.855Z,1.20
2023-05-23T16:59:52.695Z,1.50
2023-05-23T17:04:44.311Z,1.00
2023-05-23T17:09:36.802Z,1.20
2023-05-23T17:14:28.821Z,1.30
2023-05-23T17:19:20.963Z,1.40
2023-05-23T17:24:13.162Z,1.10
2023-05-23T17:29:05.276Z,1.17
2023-05-23T17:33:56.935Z,1.50
2023-05-23T17:38:48.794Z,1.00
2023-05-23T17:43:43.000Z,1.05
2023-05-23T17:48:46.433Z,0.77
2023-05-23T17:53:41.450Z,0.95
2023-05-23T17:58:33.131Z,0.70
2023-05-23T18:03:24.881Z,0.80
2023-05-23T18:08:16.512Z,1.20
2023-05-23T18:13:08.112Z,1.13
2023-05-23T18:17:59.821Z,2.28
2023-05-23T18:22:53.875Z,1.60
2023-05-23T18:27:45.858Z,1.50
2023-05-23T18:32:37.530Z,1.75
2023-05-23T18:37:29.131Z,1.48
2023-05-23T18:42:21.147Z,1.73
2023-05-23T18:47:13.052Z,1.70
2023-05-23T18:52:06.198Z,1.40
2023-05-23T18:56:57.851Z,0.90
2023-05-23T19:01:49.600Z,0.85
2023-05-23T19:06:42.453Z,1.00
2023-05-23T19:11:34.115Z,1.02
2023-05-23T19:16:25.844Z,1.00
2023-05-23T19:21:17.464Z,1.00
2023-05-23T19:26:10.312Z,0.90
2023-05-23T19:31:02.030Z,1.05
2023-05-23T19:35:53.771Z,1.30
2023-05-23T19:40:47.068Z,0.80
2023-05-23T19:45:38.844Z,0.80
2023-05-23T19:50:30.481Z,1.20
2023-05-23T19:55:22.373Z,1.13
2023-05-23T20:00:15.406Z,1.60
2023-05-23T20:05:08.369Z,1.48
2023-05-23T20:10:00.023Z,0.88
2023-05-23T20:14:51.879Z,1.00
2023-05-23T20:19:43.523Z,0.75
2023-05-23T20:24:35.267Z,1.00
2023-05-23T20:29:27.040Z,1.42
2023-05-23T20:34:18.745Z,1.17
2023-05-23T20:39:10.456Z,0.80
2023-05-23T20:44:02.273Z,1.08
2023-05-23T20:48:53.920Z,0.82
2023-05-23T20:53:45.711Z,0.98
2023-05-23T20:58:37.963Z,1.08
2023-05-23T21:03:29.605Z,1.58
2023-05-23T21:08:22.625Z,1.60
2023-05-23T21:13:14.199Z,1.15
2023-05-23T21:18:06.002Z,0.93
2023-05-23T21:22:57.638Z,1.00
2023-05-23T21:27:49.230Z,0.93
2023-05-23T21:32:41.117Z,1.13
2023-05-23T21:37:32.749Z,1.10
2023-05-23T21:42:25.521Z,1.13
2023-05-23T21:47:17.246Z,0.77
2023-05-23T21:52:08.899Z,1.25
2023-05-23T21:57:00.565Z,1.60
2023-05-23T22:01:52.294Z,0.70
2023-05-23T22:06:44.075Z,0.60
2023-05-23T22:11:35.714Z,1.00
2023-05-23T22:16:28.293Z,1.10
2023-05-23T22:21:19.960Z,1.10
2023-05-23T22:26:12.685Z,0.77
2023-05-23T22:31:04.511Z,0.93
2023-05-23T22:35:56.222Z,1.05
2023-05-23T22:40:47.950Z,1.30
2023-05-23T22:45:42.683Z,1.10
2023-05-23T22:50:41.004Z,1.58
2023-05-23T22:55:32.787Z,1.08
2023-05-23T23:00:28.007Z,1.63
2023-05-23T23:05:20.758Z,1.70
2023-05-23T23:10:12.434Z,1.70
2023-05-23T23:15:04.805Z,1.80
2023-05-23T23:19:57.772Z,2.10
2023-05-23T23:24:49.537Z,1.13
2023-05-23T23:29:41.182Z,1.15
2023-05-23T23:34:32.821Z,1.45
2023-05-23T23:39:24.508Z,1.38
2023-05-23T23:44:16.455Z,1.13
2023-05-23T23:49:08.048Z,0.93
2023-05-23T23:53:59.939Z,1.23
2023-05-23T23:58:52.158Z,1.35
